createdAt,value
2019-05-12T00:01:18.544Z,101259.81
2019-05-12T00:06:18.452Z,101264.56
2019-05-12T00:11:20.919Z,101271.45
2019-05-12T00:16:23.376Z,101275.41
2019-05-12T00:21:28.145Z,101288.10
2019-05-12T00:26:28.464Z,101300.92
2019-05-12T00:31:30.789Z,101302.55
2019-05-12T00:36:33.255Z,101311.98
2019-05-12T00:41:35.708Z,101313.23
2019-05-12T00:46:38.660Z,101312.69
2019-05-12T00:51:40.631Z,101304.09
2019-05-12T00:56:43.087Z,101312.73
2019-05-12T01:01:45.557Z,101328.33
2019-05-12T01:06:48.630Z,101330.46
2019-05-12T01:11:50.481Z,101341.45
2019-05-12T01:16:53.047Z,101352.19
2019-05-12T01:21:55.520Z,101351.73
2019-05-12T01:26:58.330Z,101346.73
2019-05-12T01:32:00.464Z,101355.39
2019-05-12T01:37:07.882Z,101363.19
2019-05-12T01:42:09.113Z,101369.09
2019-05-12T01:47:10.827Z,101379.20
2019-05-12T01:52:13.295Z,101386.39
2019-05-12T01:57:15.753Z,101395.38
2019-05-12T02:02:18.226Z,101400.03
2019-05-12T02:07:20.682Z,101410.84
2019-05-12T02:12:23.138Z,101418.98
2019-05-12T02:17:25.607Z,101431.06
2019-05-12T02:22:28.063Z,101430.78
2019-05-12T02:27:30.517Z,101447.11
2019-05-12T02:32:47.321Z,101456.11
2019-05-12T02:37:36.008Z,101465.17
2019-05-12T02:42:37.910Z,101476.31
2019-05-12T02:47:40.360Z,101477.69
2019-05-12T02:52:44.252Z,101474.37
2019-05-12T02:57:45.437Z,101486.86
2019-05-12T03:02:47.828Z,101494.16
2019-05-12T03:07:50.297Z,101513.79
2019-05-12T03:12:54.947Z,101514.51
2019-05-12T03:17:55.218Z,101525.73
2019-05-12T03:22:57.675Z,101532.53
2019-05-12T03:28:00.118Z,101541.12
2019-05-12T03:33:08.199Z,101553.06
2019-05-12T03:38:05.051Z,101562.50
2019-05-12T03:43:07.514Z,101566.88
2019-05-12T03:48:09.990Z,101579.45
2019-05-12T03:53:15.675Z,101587.89
2019-05-12T03:58:15.467Z,101590.33
2019-05-12T04:03:17.358Z,101598.00
2019-05-12T04:08:19.819Z,101610.94
2019-05-12T04:13:22.285Z,101620.85
2019-05-12T04:18:24.914Z,101625.50
2019-05-12T04:23:27.200Z,101642.98
2019-05-12T04:28:29.662Z,101640.01
2019-05-12T04:33:34.700Z,101658.08
2019-05-12T04:38:35.516Z,101668.92
2019-05-12T04:43:37.084Z,101676.74
2019-05-12T04:48:39.542Z,101681.37
2019-05-12T04:53:44.927Z,101683.44
2019-05-12T04:58:45.166Z,101697.92
2019-05-12T05:03:46.925Z,101706.46
2019-05-12T05:08:49.389Z,101701.95
2019-05-12T05:13:54.600Z,101714.95
2019-05-12T05:18:54.463Z,101726.08
2019-05-12T05:23:56.763Z,101732.92
2019-05-12T05:28:59.221Z,101745.53
2019-05-12T05:34:01.699Z,101763.98
2019-05-12T05:39:04.410Z,101766.48
2019-05-12T05:44:06.618Z,101768.52
2019-05-12T05:49:09.088Z,101767.84
2019-05-12T05:54:13.602Z,101764.73
2019-05-12T05:59:15.079Z,101778.22
2019-05-12T06:04:16.516Z,101783.63
2019-05-12T06:09:18.971Z,101786.22
2019-05-12T06:14:23.538Z,101783.06
2019-05-12T06:19:26.174Z,101792.16
2019-05-12T06:24:26.370Z,101802.67
2019-05-12T06:29:28.828Z,101813.82
2019-05-12T06:34:31.375Z,101825.39
2019-05-12T06:39:34.433Z,101823.61
2019-05-12T06:44:36.288Z,101846.34
2019-05-12T06:49:38.750Z,101840.44
2019-05-12T06:54:44.570Z,101847.45
2019-05-12T06:59:50.958Z,101852.55
2019-05-12T07:04:50.296Z,101850.28
2019-05-12T07:09:53.720Z,101861.95
2019-05-12T07:14:55.569Z,101874.63
2019-05-12T07:19:57.002Z,101882.00
2019-05-12T07:24:55.953Z,101883.31
2019-05-12T07:29:58.448Z,101893.92
2019-05-12T07:35:00.873Z,101889.20
2019-05-12T07:40:04.844Z,101900.14
2019-05-12T07:45:05.996Z,101904.73
2019-05-12T07:50:10.023Z,101913.73
2019-05-12T07:55:10.931Z,101918.12
2019-05-12T08:00:21.280Z,101920.55
2019-05-12T08:05:19.446Z,101928.80
2019-05-12T08:10:19.952Z,101937.65
2019-05-12T08:15:20.800Z,101931.72
2019-05-12T08:20:23.916Z,101942.28
2019-05-12T08:25:28.800Z,101951.91
2019-05-12T08:30:33.105Z,101967.91
2019-05-12T08:35:38.039Z,101977.14
2019-05-12T08:40:39.691Z,101979.80
2019-05-12T08:45:38.589Z,101988.36
2019-05-12T08:50:42.946Z,101985.35
2019-05-12T08:55:43.764Z,102006.25
2019-05-12T09:00:50.106Z,101986.17
2019-05-12T09:05:48.490Z,102012.61
2019-05-12T09:10:54.739Z,102008.45
2019-05-12T09:15:54.185Z,102023.19
2019-05-12T09:20:55.993Z,102023.98
2019-05-12T09:25:58.396Z,102030.97
2019-05-12T09:31:00.874Z,102032.12
2019-05-12T09:36:04.344Z,102033.42
2019-05-12T09:41:05.790Z,102018.93
2019-05-12T09:46:08.245Z,102015.95
2019-05-12T09:51:10.699Z,102021.32
2019-05-12T09:56:13.785Z,102024.69
2019-05-12T10:01:15.689Z,102021.66
2019-05-12T10:06:21.273Z,102035.37
2019-05-12T10:11:21.038Z,102046.02
2019-05-12T10:16:24.087Z,102047.87
2019-05-12T10:21:25.554Z,102059.20
2019-05-12T10:26:28.049Z,102059.88
2019-05-12T10:31:35.660Z,102068.63
2019-05-12T10:36:33.743Z,102064.94
2019-05-12T10:41:35.450Z,102067.13
2019-05-12T10:46:37.937Z,102059.95
2019-05-12T10:51:40.410Z,102063.64
2019-05-12T10:56:43.794Z,102064.58
2019-05-12T11:01:48.827Z,102060.58
2019-05-12T11:06:48.595Z,102063.45
2019-05-12T11:11:50.282Z,102049.36
2019-05-12T11:16:54.220Z,102053.52
2019-05-12T11:21:55.180Z,102060.86
2019-05-12T11:26:57.653Z,102065.91
2019-05-12T11:32:00.104Z,102061.05
2019-05-12T11:37:03.392Z,102070.23
2019-05-12T11:42:05.051Z,102078.50
2019-05-12T11:47:07.543Z,102090.55
2019-05-12T11:52:15.465Z,102085.19
2019-05-12T11:57:13.342Z,102090.03
2019-05-12T12:02:14.929Z,102084.55
2019-05-12T12:07:17.399Z,102088.69
2019-05-12T12:12:19.865Z,102069.55
2019-05-12T12:17:30.825Z,102078.77
2019-05-12T12:22:28.153Z,102088.06
2019-05-12T12:27:27.373Z,102084.50
2019-05-12T12:32:29.851Z,102079.08
2019-05-12T12:37:33.138Z,102085.05
2019-05-12T12:42:36.995Z,102077.21
2019-05-12T12:47:46.683Z,102070.20
2019-05-12T12:52:46.899Z,102058.62
2019-05-12T12:57:46.351Z,102051.79
2019-05-12T13:02:49.110Z,102055.70
2019-05-12T13:07:47.105Z,102060.12
2019-05-12T13:12:50.337Z,102048.86
2019-05-12T13:17:52.088Z,102067.06
2019-05-12T13:22:54.522Z,102046.23
2019-05-12T13:28:01.619Z,102052.64
2019-05-12T13:32:59.456Z,102055.35
2019-05-12T13:38:01.934Z,102050.52
2019-05-12T13:43:09.222Z,102065.59
2019-05-12T13:48:09.450Z,102040.83
2019-05-12T13:53:10.379Z,102039.89
2019-05-12T13:58:13.619Z,102046.26
2019-05-12T14:03:14.387Z,102037.91
2019-05-12T14:08:16.857Z,102037.30
2019-05-12T14:13:19.390Z,102034.61
2019-05-12T14:18:21.857Z,102036.48
2019-05-12T14:23:24.345Z,102032.68
2019-05-12T14:28:26.825Z,102031.79
2019-05-12T14:33:29.825Z,102042.91
2019-05-12T14:38:33.675Z,102020.61
2019-05-12T14:43:34.246Z,102018.86
2019-05-12T14:48:40.214Z,102023.05
2019-05-12T14:53:39.836Z,102024.95
2019-05-12T14:58:41.670Z,102028.39
2019-05-12T15:03:47.677Z,102034.86
2019-05-12T15:08:46.619Z,102036.30
2019-05-12T15:13:49.083Z,102037.55
2019-05-12T15:18:53.967Z,102038.02
2019-05-12T15:23:54.062Z,102040.30
2019-05-12T15:28:56.581Z,102038.09
2019-05-12T15:33:59.011Z,102046.68
2019-05-12T15:39:03.385Z,102053.87
2019-05-12T15:44:06.489Z,102045.95
2019-05-12T15:49:08.755Z,102034.47
2019-05-12T15:54:11.454Z,102054.11
2019-05-12T15:59:11.378Z,102055.94
2019-05-12T16:04:15.257Z,102059.41
2019-05-12T16:09:16.346Z,102059.20
2019-05-12T16:14:18.896Z,102060.32
2019-05-12T16:19:23.425Z,102074.06
2019-05-12T16:24:27.127Z,102065.90
2019-05-12T16:29:26.275Z,102070.66
2019-05-12T16:34:28.743Z,102077.92
2019-05-12T16:39:37.133Z,102077.66
2019-05-12T16:44:34.881Z,102077.52
2019-05-12T16:49:37.409Z,102080.91
2019-05-12T16:54:39.459Z,102078.71
2019-05-12T16:59:42.556Z,102076.32
2019-05-12T17:04:44.965Z,102077.67
2019-05-12T17:09:47.440Z,102075.86
2019-05-12T17:14:50.299Z,102079.18
2019-05-12T17:19:54.027Z,102080.94
2019-05-12T17:24:54.968Z,102079.27
2019-05-12T17:29:57.434Z,102080.10
2019-05-12T17:34:59.923Z,102080.17
2019-05-12T17:40:03.707Z,102093.22
2019-05-12T17:45:09.483Z,102097.19
2019-05-12T17:50:10.202Z,102107.28
2019-05-12T17:55:10.896Z,102111.82
2019-05-12T18:00:13.943Z,102117.13
2019-05-12T18:05:15.942Z,102125.33
2019-05-12T18:10:17.292Z,102129.77
2019-05-12T18:15:23.430Z,102137.55
2019-05-12T18:20:23.804Z,102145.04
2019-05-12T18:25:30.257Z,102144.52
2019-05-12T18:30:27.163Z,102157.19
2019-05-12T18:35:29.639Z,102163.80
2019-05-12T18:40:34.076Z,102170.95
2019-05-12T18:45:34.680Z,102179.08
2019-05-12T18:50:37.160Z,102184.18
2019-05-12T18:55:40.540Z,102186.09
2019-05-12T19:00:43.642Z,102191.97
2019-05-12T19:05:44.681Z,102198.47
2019-05-12T19:10:51.187Z,102196.80
2019-05-12T19:15:52.674Z,102202.90
2019-05-12T19:20:54.161Z,102212.87
2019-05-12T19:25:54.563Z,102231.82
2019-05-12T19:31:00.992Z,102233.05
2019-05-12T19:36:04.347Z,102245.98
2019-05-12T19:41:04.443Z,102255.73
2019-05-12T19:46:04.918Z,102260.58
2019-05-12T19:51:20.864Z,102258.98
2019-05-12T19:56:09.385Z,102263.23
2019-05-12T20:01:13.921Z,102274.53
2019-05-12T20:06:14.378Z,102274.89
2019-05-12T20:11:20.090Z,102276.47
2019-05-12T20:16:21.881Z,102270.56
2019-05-12T20:21:26.081Z,102276.19
2019-05-12T20:26:24.279Z,102274.78
2019-05-12T20:31:27.355Z,102271.50
2019-05-12T20:36:29.186Z,102283.04
2019-05-12T20:41:33.669Z,102280.72
2019-05-12T20:46:34.141Z,102280.65
2019-05-12T20:51:36.599Z,102272.98
2019-05-12T20:56:39.074Z,102279.05
2019-05-12T21:01:41.531Z,102276.05
2019-05-12T21:06:43.993Z,102279.98
2019-05-12T21:11:46.483Z,102280.58
2019-05-12T21:16:48.927Z,102284.92
2019-05-12T21:21:51.388Z,102282.50
2019-05-12T21:26:54.726Z,102291.89
2019-05-12T21:31:56.481Z,102293.75
2019-05-12T21:37:04.249Z,102298.45
2019-05-12T21:42:03.805Z,102306.09
2019-05-12T21:47:09.943Z,102310.25
2019-05-12T21:52:06.701Z,102312.24
2019-05-12T21:57:08.580Z,102313.55
2019-05-12T22:02:11.063Z,102322.30
2019-05-12T22:07:15.053Z,102325.03
2019-05-12T22:12:16.057Z,102326.47
2019-05-12T22:17:18.535Z,102328.30
2019-05-12T22:22:28.079Z,102329.52
2019-05-12T22:27:27.175Z,102325.53
2019-05-12T22:32:29.523Z,102333.39
2019-05-12T22:37:29.410Z,102331.89
2019-05-12T22:42:30.811Z,102328.53
2019-05-12T22:47:33.522Z,102326.98
2019-05-12T22:52:39.000Z,102323.05
2019-05-12T22:57:40.048Z,102326.95
2019-05-12T23:02:40.723Z,102325.18
2019-05-12T23:07:43.975Z,102333.23
2019-05-12T23:12:50.295Z,102324.87
2019-05-12T23:17:49.519Z,102337.20
2019-05-12T23:22:50.585Z,102338.98
2019-05-12T23:27:54.351Z,102343.95
2019-05-12T23:32:55.483Z,102344.59
2019-05-12T23:37:57.940Z,102346.52
2019-05-12T23:43:00.396Z,102339.97
2019-05-12T23:48:03.738Z,102345.08
2019-05-12T23:53:05.304Z,102342.29
2019-05-12T23:58:07.747Z,102340.23
